createdAt,value
2022-09-14T00:02:12.646Z,13.07
2022-09-14T00:05:20.641Z,13.14
2022-09-14T00:08:28.492Z,13.11
2022-09-14T00:12:14.823Z,13.00
2022-09-14T00:15:23.168Z,12.97
2022-09-14T00:18:31.016Z,13.03
2022-09-14T00:21:38.739Z,12.97
2022-09-14T00:24:47.188Z,12.89
2022-09-14T00:27:55.557Z,12.96
2022-09-14T00:31:03.179Z,12.96
2022-09-14T00:34:11.350Z,12.89
2022-09-14T00:37:19.406Z,12.79
2022-09-14T00:40:27.295Z,12.71
2022-09-14T00:43:35.555Z,12.69
2022-09-14T00:46:43.443Z,12.62
2022-09-14T00:49:51.483Z,12.60
2022-09-14T00:52:59.895Z,12.59
2022-09-14T00:56:07.696Z,12.59
2022-09-14T00:59:15.186Z,12.57
2022-09-14T01:02:23.161Z,12.48
2022-09-14T01:05:31.089Z,12.44
2022-09-14T01:08:39.095Z,12.46
2022-09-14T01:11:50.978Z,12.46
2022-09-14T01:14:48.764Z,12.48
2022-09-14T01:17:56.412Z,12.49
2022-09-14T01:21:05.612Z,12.49
2022-09-14T01:24:13.511Z,12.44
2022-09-14T01:27:21.293Z,12.45
2022-09-14T01:30:29.792Z,12.45
2022-09-14T01:33:37.373Z,12.48
2022-09-14T01:36:45.356Z,12.49
2022-09-14T01:39:53.683Z,12.54
2022-09-14T01:43:01.277Z,12.56
2022-09-14T01:46:09.483Z,12.62
2022-09-14T01:49:17.905Z,12.51
2022-09-14T01:52:25.509Z,12.41
2022-09-14T01:55:33.709Z,12.38
2022-09-14T01:58:42.399Z,12.34
2022-09-14T02:01:50.569Z,12.31
2022-09-14T02:04:59.848Z,12.34
2022-09-14T02:08:07.836Z,12.30
2022-09-14T02:11:15.764Z,12.27
2022-09-14T02:14:24.107Z,12.24
2022-09-14T02:17:32.194Z,12.23
2022-09-14T02:20:39.694Z,12.21
2022-09-14T02:23:47.548Z,12.21
2022-09-14T02:26:55.731Z,12.20
2022-09-14T02:30:03.417Z,12.16
2022-09-14T02:33:10.958Z,12.20
2022-09-14T02:36:18.779Z,12.21
2022-09-14T02:39:26.708Z,12.15
2022-09-14T02:42:34.518Z,12.15
2022-09-14T02:45:42.080Z,12.16
2022-09-14T02:48:50.002Z,12.27
2022-09-14T02:51:58.295Z,12.33
2022-09-14T02:55:06.178Z,12.39
2022-09-14T02:58:14.142Z,12.39
2022-09-14T03:01:22.526Z,12.34
2022-09-14T03:04:30.055Z,12.33
2022-09-14T03:07:38.085Z,12.30
2022-09-14T03:10:46.306Z,12.26
2022-09-14T03:13:53.747Z,12.21
2022-09-14T03:17:01.671Z,12.19
2022-09-14T03:20:09.448Z,12.16
2022-09-14T03:23:17.372Z,12.11
2022-09-14T03:26:25.429Z,12.09
2022-09-14T03:29:32.940Z,12.05
2022-09-14T03:32:41.254Z,12.02
2022-09-14T03:35:49.131Z,11.97
2022-09-14T03:38:57.188Z,11.94
2022-09-14T03:42:05.444Z,11.89
2022-09-14T03:45:13.225Z,11.89
2022-09-14T03:48:20.914Z,11.89
2022-09-14T03:51:28.509Z,11.86
2022-09-14T03:54:36.426Z,11.83
2022-09-14T03:57:44.468Z,11.85
2022-09-14T04:00:52.335Z,11.78
2022-09-14T04:04:00.669Z,11.82
2022-09-14T04:07:08.178Z,11.78
2022-09-14T04:10:16.471Z,11.75
2022-09-14T04:13:24.921Z,11.72
2022-09-14T04:16:32.548Z,11.71
2022-09-14T04:19:41.022Z,11.71
2022-09-14T04:22:48.773Z,11.72
2022-09-14T04:25:56.703Z,11.71
2022-09-14T04:29:05.044Z,11.74
2022-09-14T04:32:12.965Z,11.72
2022-09-14T04:35:20.704Z,11.71
2022-09-14T04:38:28.659Z,11.62
2022-09-14T04:41:37.048Z,11.53
2022-09-14T04:44:44.911Z,11.46
2022-09-14T04:47:52.787Z,11.46
2022-09-14T04:51:00.551Z,11.50
2022-09-14T04:54:08.449Z,11.53
2022-09-14T04:57:16.321Z,11.56
2022-09-14T05:00:24.762Z,11.59
2022-09-14T05:03:32.271Z,11.61
2022-09-14T05:06:40.313Z,11.62
2022-09-14T05:09:48.670Z,11.64
2022-09-14T05:12:56.275Z,11.65
2022-09-14T05:16:04.777Z,11.67
2022-09-14T05:19:12.682Z,11.71
2022-09-14T05:22:20.794Z,11.74
2022-09-14T05:25:29.397Z,11.85
2022-09-14T05:28:37.379Z,11.93
2022-09-14T05:31:45.962Z,12.02
2022-09-14T05:34:54.890Z,12.12
2022-09-14T05:38:02.790Z,12.16
2022-09-14T05:41:11.496Z,12.20
2022-09-14T05:44:20.272Z,12.27
2022-09-14T05:47:28.553Z,12.30
2022-09-14T05:50:36.763Z,12.33
2022-09-14T05:53:45.333Z,12.38
2022-09-14T05:56:53.454Z,12.41
2022-09-14T06:00:02.346Z,12.51
2022-09-14T06:03:11.206Z,12.62
2022-09-14T06:06:19.401Z,12.75
2022-09-14T06:09:32.988Z,12.85
2022-09-14T06:12:30.839Z,12.89
2022-09-14T06:15:39.193Z,13.00
2022-09-14T06:18:47.677Z,13.14
2022-09-14T06:21:56.377Z,13.32
2022-09-14T06:25:04.859Z,13.47
2022-09-14T06:28:13.298Z,13.63
2022-09-14T06:31:21.992Z,13.74
2022-09-14T06:34:30.373Z,13.91
2022-09-14T06:37:38.898Z,14.02
2022-09-14T06:40:47.762Z,14.13
2022-09-14T06:43:56.229Z,14.25
2022-09-14T06:47:04.439Z,14.38
2022-09-14T06:50:13.245Z,14.44
2022-09-14T06:53:21.010Z,14.50
2022-09-14T06:56:29.518Z,14.60
2022-09-14T06:59:38.430Z,14.69
2022-09-14T07:02:46.883Z,14.78
2022-09-14T07:05:56.273Z,14.84
2022-09-14T07:09:04.193Z,14.88
2022-09-14T07:12:12.904Z,14.94
2022-09-14T07:15:21.394Z,14.98
2022-09-14T07:18:29.354Z,14.95
2022-09-14T07:21:38.896Z,15.08
2022-09-14T07:24:48.563Z,15.19
2022-09-14T07:27:57.030Z,15.33
2022-09-14T07:31:06.391Z,15.43
2022-09-14T07:34:15.094Z,15.52
2022-09-14T07:37:23.902Z,15.64
2022-09-14T07:40:33.363Z,15.70
2022-09-14T07:43:42.422Z,15.76
2022-09-14T07:46:51.235Z,15.79
2022-09-14T07:50:00.552Z,15.81
2022-09-14T07:53:09.436Z,15.82
2022-09-14T07:56:18.526Z,15.76
2022-09-14T07:59:36.529Z,15.68
2022-09-14T08:02:32.840Z,15.74
2022-09-14T08:05:41.111Z,15.82
2022-09-14T08:08:49.796Z,15.94
2022-09-14T08:11:59.271Z,16.03
2022-09-14T08:15:07.731Z,16.07
2022-09-14T08:18:16.664Z,16.06
2022-09-14T08:21:25.147Z,16.11
2022-09-14T08:24:32.974Z,16.12
2022-09-14T08:27:41.156Z,16.16
2022-09-14T08:30:49.696Z,16.23
2022-09-14T08:33:57.621Z,16.25
2022-09-14T08:37:06.468Z,16.23
2022-09-14T08:40:15.182Z,16.12
2022-09-14T08:43:23.319Z,16.11
2022-09-14T08:46:32.172Z,16.26
2022-09-14T08:49:41.629Z,16.44
2022-09-14T08:52:49.613Z,16.55
2022-09-14T08:55:58.176Z,16.71
2022-09-14T08:59:08.394Z,16.86
2022-09-14T09:02:16.197Z,17.06
2022-09-14T09:05:24.866Z,17.30
2022-09-14T09:08:33.029Z,17.55
2022-09-14T09:11:42.647Z,17.82
2022-09-14T09:14:52.001Z,18.02
2022-09-14T09:18:00.581Z,18.22
2022-09-14T09:21:09.684Z,18.42
2022-09-14T09:24:17.974Z,18.62
2022-09-14T09:27:26.226Z,18.77
2022-09-14T09:30:34.505Z,18.86
2022-09-14T09:33:42.824Z,18.98
2022-09-14T09:36:51.358Z,19.05
2022-09-14T09:39:59.822Z,19.17
2022-09-14T09:43:09.457Z,19.28
2022-09-14T09:46:18.462Z,19.43
2022-09-14T09:49:26.611Z,19.48
2022-09-14T09:52:35.034Z,19.36
2022-09-14T09:55:42.924Z,19.35
2022-09-14T09:58:51.473Z,19.61
2022-09-14T10:02:00.639Z,19.88
2022-09-14T10:05:08.795Z,20.05
2022-09-14T10:08:16.579Z,19.90
2022-09-14T10:11:25.568Z,19.88
2022-09-14T10:14:33.791Z,19.94
2022-09-14T10:17:42.191Z,20.08
2022-09-14T10:20:49.693Z,19.87
2022-09-14T10:23:58.183Z,19.70
2022-09-14T10:27:06.717Z,19.90
2022-09-14T10:30:14.945Z,20.00
2022-09-14T10:33:23.628Z,20.12
2022-09-14T10:36:31.577Z,20.18
2022-09-14T10:39:39.862Z,20.20
2022-09-14T10:42:48.487Z,20.13
2022-09-14T10:45:57.079Z,20.05
2022-09-14T10:49:05.132Z,20.15
2022-09-14T10:52:12.864Z,20.10
2022-09-14T10:55:21.340Z,20.10
2022-09-14T10:58:30.267Z,20.06
2022-09-14T11:01:37.836Z,19.94
2022-09-14T11:04:46.001Z,19.94
2022-09-14T11:07:53.489Z,20.06
2022-09-14T11:11:02.057Z,20.20
2022-09-14T11:14:10.762Z,20.24
2022-09-14T11:17:18.677Z,20.24
2022-09-14T11:20:27.722Z,20.35
2022-09-14T11:23:36.374Z,20.35
2022-09-14T11:26:44.813Z,20.12
2022-09-14T11:29:53.388Z,19.93
2022-09-14T11:33:02.351Z,20.00
2022-09-14T11:36:10.190Z,20.20
2022-09-14T11:39:18.385Z,20.21
2022-09-14T11:42:27.150Z,20.03
2022-09-14T11:45:35.488Z,19.94
2022-09-14T11:48:44.172Z,19.76
2022-09-14T11:51:52.594Z,19.76
2022-09-14T11:55:00.078Z,19.78
2022-09-14T11:58:09.001Z,19.84
2022-09-14T12:01:18.059Z,19.91
2022-09-14T12:04:26.309Z,20.03
2022-09-14T12:07:34.673Z,19.95
2022-09-14T12:10:45.869Z,19.76
2022-09-14T12:13:43.465Z,19.70
2022-09-14T12:16:52.604Z,19.55
2022-09-14T12:20:01.219Z,19.58
2022-09-14T12:23:09.694Z,19.54
2022-09-14T12:26:18.206Z,19.61
2022-09-14T12:29:26.199Z,19.72
2022-09-14T12:32:34.153Z,19.63
2022-09-14T12:35:42.555Z,19.69
2022-09-14T12:38:51.263Z,19.69
2022-09-14T12:41:59.832Z,19.57
2022-09-14T12:45:08.352Z,19.55
2022-09-14T12:48:16.888Z,19.43
2022-09-14T12:51:25.993Z,19.39
2022-09-14T12:54:34.537Z,19.24
2022-09-14T12:57:42.480Z,19.17
2022-09-14T13:00:50.506Z,19.18
2022-09-14T13:03:58.604Z,19.11
2022-09-14T13:07:06.464Z,19.05
2022-09-14T13:10:14.723Z,19.05
2022-09-14T13:13:23.617Z,19.10
2022-09-14T13:16:31.337Z,19.13
2022-09-14T13:19:40.178Z,19.17
2022-09-14T13:22:48.256Z,19.18
2022-09-14T13:25:55.728Z,19.11
2022-09-14T13:29:04.772Z,19.08
2022-09-14T13:32:13.520Z,19.01
2022-09-14T13:35:22.213Z,18.98
2022-09-14T13:38:31.076Z,18.99
2022-09-14T13:41:39.072Z,18.94
2022-09-14T13:44:47.498Z,18.94
2022-09-14T13:47:55.623Z,18.95
2022-09-14T13:51:03.756Z,18.95
2022-09-14T13:54:11.878Z,18.83
2022-09-14T13:57:19.945Z,18.82
2022-09-14T14:00:29.172Z,18.77
2022-09-14T14:03:37.860Z,18.73
2022-09-14T14:06:46.173Z,18.70
2022-09-14T14:09:55.302Z,18.67
2022-09-14T14:13:03.857Z,18.61
2022-09-14T14:16:13.391Z,18.65
2022-09-14T14:19:22.689Z,18.68
2022-09-14T14:22:31.087Z,18.68
2022-09-14T14:25:45.791Z,18.68
2022-09-14T14:28:44.324Z,18.67
2022-09-14T14:31:52.865Z,18.67
2022-09-14T14:35:01.352Z,18.72
2022-09-14T14:38:09.625Z,18.72
2022-09-14T14:41:18.549Z,18.77
2022-09-14T14:44:27.687Z,18.79
2022-09-14T14:47:36.045Z,18.82
2022-09-14T14:50:44.926Z,18.82
2022-09-14T14:53:53.849Z,18.79
2022-09-14T14:57:02.885Z,18.76
2022-09-14T15:00:11.967Z,18.72
2022-09-14T15:03:20.944Z,18.72
2022-09-14T15:06:29.831Z,18.65
2022-09-14T15:09:37.974Z,18.61
2022-09-14T15:12:46.982Z,18.54
2022-09-14T15:15:56.099Z,18.50
2022-09-14T15:19:04.888Z,18.47
2022-09-14T15:22:14.333Z,18.46
2022-09-14T15:25:23.068Z,18.40
2022-09-14T15:28:31.646Z,18.36
2022-09-14T15:31:40.779Z,18.31
2022-09-14T15:34:49.594Z,18.28
2022-09-14T15:37:57.411Z,18.27
2022-09-14T15:41:05.954Z,18.18
2022-09-14T15:44:14.275Z,18.12
2022-09-14T15:47:22.942Z,17.97
2022-09-14T15:50:31.959Z,17.84
2022-09-14T15:53:39.982Z,17.73
2022-09-14T15:56:48.011Z,17.70
2022-09-14T15:59:56.349Z,17.63
2022-09-14T16:03:04.221Z,17.50
2022-09-14T16:06:12.792Z,17.44
2022-09-14T16:09:21.723Z,17.41
2022-09-14T16:12:29.802Z,17.38
2022-09-14T16:15:39.032Z,17.26
2022-09-14T16:18:48.264Z,17.17
2022-09-14T16:21:56.169Z,17.11
2022-09-14T16:25:04.607Z,17.14
2022-09-14T16:28:13.803Z,17.17
2022-09-14T16:31:22.289Z,17.14
2022-09-14T16:34:30.581Z,17.17
2022-09-14T16:37:38.371Z,17.18
2022-09-14T16:40:46.571Z,17.17
2022-09-14T16:43:55.413Z,17.14
2022-09-14T16:47:04.264Z,17.08
2022-09-14T16:50:12.903Z,17.06
2022-09-14T16:53:20.856Z,16.99
2022-09-14T16:56:30.531Z,16.92
2022-09-14T16:59:38.889Z,16.88
2022-09-14T17:02:47.970Z,16.85
2022-09-14T17:05:57.050Z,16.83
2022-09-14T17:09:05.160Z,16.80
2022-09-14T17:12:13.301Z,16.78
2022-09-14T17:15:21.556Z,16.73
2022-09-14T17:18:29.003Z,16.70
2022-09-14T17:21:37.041Z,16.63
2022-09-14T17:24:45.175Z,16.59
2022-09-14T17:27:52.596Z,16.53
2022-09-14T17:31:00.493Z,16.50
2022-09-14T17:34:08.997Z,16.44
2022-09-14T17:37:16.440Z,16.37
2022-09-14T17:40:24.843Z,16.30
2022-09-14T17:43:32.451Z,16.23
2022-09-14T17:46:49.627Z,16.18
2022-09-14T17:49:45.535Z,16.09
2022-09-14T17:52:53.354Z,16.01
2022-09-14T17:56:01.252Z,15.97
2022-09-14T17:59:09.574Z,15.93
2022-09-14T18:02:17.355Z,15.88
2022-09-14T18:05:25.283Z,15.86
2022-09-14T18:08:32.980Z,15.79
2022-09-14T18:11:41.423Z,15.75
2022-09-14T18:14:49.842Z,15.70
2022-09-14T18:17:57.241Z,15.68
2022-09-14T18:21:05.586Z,15.66
2022-09-14T18:24:13.655Z,15.61
2022-09-14T18:27:21.489Z,15.60
2022-09-14T18:30:29.525Z,15.59
2022-09-14T18:33:38.142Z,15.57
2022-09-14T18:36:46.201Z,15.52
2022-09-14T18:39:54.171Z,15.45
2022-09-14T18:43:01.758Z,15.42
2022-09-14T18:46:10.192Z,15.41
2022-09-14T18:49:18.681Z,15.35
2022-09-14T18:52:26.952Z,15.31
2022-09-14T18:55:36.265Z,15.30
2022-09-14T18:58:44.053Z,15.26
2022-09-14T19:01:51.644Z,15.21
2022-09-14T19:05:00.714Z,15.15
2022-09-14T19:08:08.946Z,15.08
2022-09-14T19:11:18.826Z,15.03
2022-09-14T19:14:27.969Z,14.99
2022-09-14T19:17:35.625Z,14.95
2022-09-14T19:21:05.455Z,14.93
2022-09-14T19:23:48.943Z,14.90
2022-09-14T19:26:56.579Z,14.91
2022-09-14T19:30:04.848Z,14.90
2022-09-14T19:33:12.860Z,14.88
2022-09-14T19:36:20.982Z,14.90
2022-09-14T19:39:28.793Z,14.88
2022-09-14T19:42:37.664Z,14.86
2022-09-14T19:45:45.936Z,14.83
2022-09-14T19:48:53.984Z,14.81
2022-09-14T19:52:01.988Z,14.80
2022-09-14T19:55:10.358Z,14.80
2022-09-14T19:58:18.149Z,14.78
2022-09-14T20:01:25.999Z,14.71
2022-09-14T20:04:34.011Z,14.69
2022-09-14T20:07:41.394Z,14.68
2022-09-14T20:10:49.543Z,14.65
2022-09-14T20:13:57.672Z,14.64
2022-09-14T20:17:05.025Z,14.60
2022-09-14T20:20:13.186Z,14.60
2022-09-14T20:23:20.596Z,14.54
2022-09-14T20:26:28.758Z,14.52
2022-09-14T20:29:36.906Z,14.52
2022-09-14T20:32:44.857Z,14.47
2022-09-14T20:35:52.826Z,14.46
2022-09-14T20:39:00.628Z,14.39
2022-09-14T20:42:08.827Z,14.35
2022-09-14T20:45:16.721Z,14.31
2022-09-14T20:48:24.350Z,14.27
2022-09-14T20:51:32.642Z,14.17
2022-09-14T20:54:40.044Z,14.14
2022-09-14T20:57:48.365Z,14.13
2022-09-14T21:00:56.543Z,14.09
2022-09-14T21:04:03.946Z,14.07
2022-09-14T21:07:12.370Z,14.02
2022-09-14T21:10:20.296Z,13.98
2022-09-14T21:13:27.947Z,13.95
2022-09-14T21:16:36.198Z,13.95
2022-09-14T21:19:43.960Z,13.92
2022-09-14T21:22:51.692Z,13.91
2022-09-14T21:25:59.358Z,13.88
2022-09-14T21:29:07.593Z,13.83
2022-09-14T21:32:15.406Z,13.79
2022-09-14T21:35:23.299Z,13.73
2022-09-14T21:38:31.536Z,13.69
2022-09-14T21:41:39.438Z,13.69
2022-09-14T21:44:47.288Z,13.63
2022-09-14T21:47:55.448Z,13.55
2022-09-14T21:51:02.829Z,13.52
2022-09-14T21:54:11.161Z,13.46
2022-09-14T21:57:18.870Z,13.37
2022-09-14T22:00:30.649Z,13.29
2022-09-14T22:03:28.192Z,13.25
2022-09-14T22:06:36.221Z,13.18
2022-09-14T22:09:44.032Z,13.22
2022-09-14T22:12:52.253Z,13.24
2022-09-14T22:16:00.182Z,13.27
2022-09-14T22:19:07.928Z,13.30
2022-09-14T22:22:16.065Z,13.33
2022-09-14T22:25:23.800Z,13.38
2022-09-14T22:28:31.559Z,13.38
2022-09-14T22:31:38.948Z,13.40
2022-09-14T22:34:49.611Z,13.47
2022-09-14T22:37:57.442Z,13.49
2022-09-14T22:41:05.241Z,13.43
2022-09-14T22:44:13.485Z,13.47
2022-09-14T22:47:21.282Z,13.43
2022-09-14T22:50:28.639Z,13.43
2022-09-14T22:53:37.004Z,13.44
2022-09-14T22:56:44.965Z,13.43
2022-09-14T22:59:52.457Z,13.41
2022-09-14T23:03:00.613Z,13.40
2022-09-14T23:06:08.028Z,13.32
2022-09-14T23:09:16.038Z,13.32
2022-09-14T23:12:24.300Z,13.29
2022-09-14T23:15:31.679Z,13.25
2022-09-14T23:18:39.724Z,13.14
2022-09-14T23:21:47.681Z,13.00
2022-09-14T23:24:54.983Z,12.88
2022-09-14T23:28:02.892Z,12.79
2022-09-14T23:31:10.796Z,12.75
2022-09-14T23:34:18.253Z,12.75
2022-09-14T23:37:25.913Z,12.74
2022-09-14T23:40:33.894Z,12.71
2022-09-14T23:43:41.659Z,12.69
2022-09-14T23:46:49.348Z,12.62
2022-09-14T23:49:57.276Z,12.54
2022-09-14T23:53:04.888Z,12.46
2022-09-14T23:56:12.509Z,12.41
2022-09-14T23:59:20.540Z,12.37
